Terminal Aerodrome Forecast
Issued by NWS

Home | Current Version | Previous Version | Text Only | Print | Product List | Glossary Off
Versions: 1 2 3 4 5 6 7 8 9 10 11 12 13 14 15 16 17 18

000
FTUS43 KABR 201609 AAA
TAFMBG
TAF AMD
KMBG 201609Z 2016/2112 02009KT P6SM VCSH BKN100
     FM201800 02012KT P6SM BKN200
     FM202000 03006KT P6SM BKN200=

USA.gov is the U.S. government's official web portal to all federal, state and local government web resources and services.